Berzelia, Georgia
Current Conditions -  °F | °C
As of 9:35 PM on Sunday 23 Nov 2014 (Local Time) from KHQU Reporting Station
Clear Clear  
Wind Chill: 67°   Ceiling: Unl
Heat Index: 67°   Visibility: 10mi
Dew Point: 66°   Wind: 8mph
Humidity: 97%   Direction: 210°SSW
Pressure: 29.81"   Gusts: 20mph
Location:  33.4134°N, 82.3106°W
Report Text: KHQU 240235Z AUTO 21007G17KT 180V250 10SM CLR 20/19 A2981 RMK AO1 T01950190
Loading
Personal Weather Stations






























Interactive Weather Map New forecast layout! Learn more

10-Day Weather Forecast

Advertisements
Track Severe Weather on mobile